sensor_id;sensor_type;location;lat;lon;timestamp;pressure;altitude;pressure_sealevel;temperature;humidity
18813;BME280;9534;51.140;6.296;2023-05-10T00:00:21;99876.25;;;12.71;100.00
18813;BME280;9534;51.140;6.296;2023-05-10T00:04:26;99874.00;;;12.68;100.00
18813;BME280;9534;51.140;6.296;2023-05-10T00:08:29;99875.06;;;12.67;100.00
18813;BME280;9534;51.140;6.296;2023-05-10T00:12:32;99864.78;;;12.62;100.00
18813;BME280;9534;51.140;6.296;2023-05-10T00:16:36;99863.97;;;12.62;100.00
18813;BME280;9534;51.140;6.296;2023-05-10T00:20:40;99867.44;;;12.57;100.00
18813;BME280;9534;51.140;6.296;2023-05-10T00:24:43;99862.78;;;12.58;100.00
18813;BME280;9534;51.140;6.296;2023-05-10T00:28:46;99868.88;;;12.60;100.00
18813;BME280;9534;51.140;6.296;2023-05-10T00:32:49;99866.47;;;12.63;100.00
18813;BME280;9534;51.140;6.296;2023-05-10T00:36:54;99858.97;;;12.59;100.00
18813;BME280;9534;51.140;6.296;2023-05-10T00:40:57;99862.31;;;12.61;100.00
18813;BME280;9534;51.140;6.296;2023-05-10T00:45:04;99871.34;;;12.73;100.00
18813;BME280;9534;51.140;6.296;2023-05-10T00:49:08;99865.75;;;12.68;100.00
18813;BME280;9534;51.140;6.296;2023-05-10T00:53:12;99869.81;;;12.65;100.00
18813;BME280;9534;51.140;6.296;2023-05-10T00:57:15;99868.50;;;12.68;100.00
18813;BME280;9534;51.140;6.296;2023-05-10T01:01:18;99870.66;;;12.66;100.00
18813;BME280;9534;51.140;6.296;2023-05-10T01:05:22;99871.25;;;12.68;100.00
18813;BME280;9534;51.140;6.296;2023-05-10T01:09:26;99871.34;;;12.73;100.00
18813;BME280;9534;51.140;6.296;2023-05-10T01:13:31;99874.91;;;12.73;100.00
18813;BME280;9534;51.140;6.296;2023-05-10T01:17:35;99880.31;;;12.68;100.00
18813;BME280;9534;51.140;6.296;2023-05-10T01:21:43;99869.69;;;12.72;100.00
18813;BME280;9534;51.140;6.296;2023-05-10T01:26:04;99869.31;;;12.68;100.00
18813;BME280;9534;51.140;6.296;2023-05-10T01:30:27;99870.66;;;12.66;100.00
18813;BME280;9534;51.140;6.296;2023-05-10T01:34:36;99863.50;;;12.65;100.00
18813;BME280;9534;51.140;6.296;2023-05-10T01:38:42;99872.66;;;12.70;100.00
18813;BME280;9534;51.140;6.296;2023-05-10T01:42:46;99872.31;;;12.67;100.00
18813;BME280;9534;51.140;6.296;2023-05-10T01:46:51;99880.78;;;12.65;100.00
18813;BME280;9534;51.140;6.296;2023-05-10T01:50:57;99871.72;;;12.65;100.00
18813;BME280;9534;51.140;6.296;2023-05-10T01:55:02;99881.63;;;12.66;100.00
18813;BME280;9534;51.140;6.296;2023-05-10T01:59:12;99874.00;;;12.68;100.00
18813;BME280;9534;51.140;6.296;2023-05-10T02:03:18;99876.16;;;12.66;100.00
18813;BME280;9534;51.140;6.296;2023-05-10T02:07:24;99879.81;;;12.71;100.00
18813;BME280;9534;51.140;6.296;2023-05-10T02:11:29;99881.16;;;12.69;100.00
18813;BME280;9534;51.140;6.296;2023-05-10T02:15:33;99881.16;;;12.69;100.00
18813;BME280;9534;51.140;6.296;2023-05-10T02:19:37;99877.81;;;12.67;100.00
18813;BME280;9534;51.140;6.296;2023-05-10T02:23:42;99885.56;;;12.70;100.00
18813;BME280;9534;51.140;6.296;2023-05-10T02:27:45;99880.66;;;12.72;100.00
18813;BME280;9534;51.140;6.296;2023-05-10T02:31:49;99884.00;;;12.74;100.00
18813;BME280;9534;51.140;6.296;2023-05-10T02:35:54;99886.97;;;12.72;100.00
18813;BME280;9534;51.140;6.296;2023-05-10T02:39:58;99886.16;;;12.72;100.00
18813;BME280;9534;51.140;6.296;2023-05-10T02:44:02;99883.53;;;12.77;100.00
18813;BME280;9534;51.140;6.296;2023-05-10T02:48:11;99890.19;;;12.81;100.00
18813;BME280;9534;51.140;6.296;2023-05-10T02:52:14;99892.47;;;12.84;100.00
18813;BME280;9534;51.140;6.296;2023-05-10T02:56:23;99890.88;;;12.88;100.00
18813;BME280;9534;51.140;6.296;2023-05-10T03:00:27;99895.88;;;12.91;100.00
18813;BME280;9534;51.140;6.296;2023-05-10T03:04:30;99900.06;;;12.93;100.00
18813;BME280;9534;51.140;6.296;2023-05-10T03:08:33;99897.06;;;12.95;100.00
18813;BME280;9534;51.140;6.296;2023-05-10T03:12:44;99905.06;;;12.96;100.00
18813;BME280;9534;51.140;6.296;2023-05-10T03:16:52;99901.47;;;12.96;100.00
18813;BME280;9534;51.140;6.296;2023-05-10T03:21:01;99904.22;;;12.96;100.00
18813;BME280;9534;51.140;6.296;2023-05-10T03:25:08;99909.72;;;12.96;100.00
18813;BME280;9534;51.140;6.296;2023-05-10T03:29:15;99918.22;;;12.94;100.00
18813;BME280;9534;51.140;6.296;2023-05-10T03:33:20;99914.88;;;12.92;100.00
18813;BME280;9534;51.140;6.296;2023-05-10T03:37:24;99908.03;;;12.95;100.00
18813;BME280;9534;51.140;6.296;2023-05-10T03:41:27;99909.13;;;12.94;100.00
18813;BME280;9534;51.140;6.296;2023-05-10T03:45:32;99918.22;;;12.94;100.00
18813;BME280;9534;51.140;6.296;2023-05-10T03:49:35;99915.69;;;12.93;100.00
18813;BME280;9534;51.140;6.296;2023-05-10T03:53:38;99913.91;;;12.87;100.00
18813;BME280;9534;51.140;6.296;2023-05-10T03:57:41;99905.13;;;12.85;100.00
18813;BME280;9534;51.140;6.296;2023-05-10T04:01:46;99927.66;;;12.87;100.00
18813;BME280;9534;51.140;6.296;2023-05-10T04:05:49;99918.47;;;12.81;100.00
18813;BME280;9534;51.140;6.296;2023-05-10T04:10:01;99923.16;;;12.81;100.00
18813;BME280;9534;51.140;6.296;2023-05-10T04:14:05;99931.28;;;12.76;100.00
18813;BME280;9534;51.140;6.296;2023-05-10T04:18:10;99916.94;;;12.74;100.00
18813;BME280;9534;51.140;6.296;2023-05-10T04:22:13;99910.28;;;12.70;100.00
18813;BME280;9534;51.140;6.296;2023-05-10T04:26:16;99910.00;;;12.71;100.00
18813;BME280;9534;51.140;6.296;2023-05-10T04:30:19;99913.63;;;12.72;100.00
18813;BME280;9534;51.140;6.296;2023-05-10T04:34:24;99914.22;;;12.74;100.00
18813;BME280;9534;51.140;6.296;2023-05-10T04:38:27;99900.97;;;12.71;100.00
18813;BME280;9534;51.140;6.296;2023-05-10T04:42:30;99908.59;;;12.69;100.00
18813;BME280;9534;51.140;6.296;2023-05-10T04:46:34;99906.44;;;12.71;100.00
18813;BME280;9534;51.140;6.296;2023-05-10T04:50:38;99911.94;;;12.71;100.00
18813;BME280;9534;51.140;6.296;2023-05-10T04:54:42;99916.09;;;12.73;100.00
18813;BME280;9534;51.140;6.296;2023-05-10T04:58:45;99908.94;;;12.72;100.00
18813;BME280;9534;51.140;6.296;2023-05-10T05:02:49;99908.13;;;12.72;100.00
18813;BME280;9534;51.140;6.296;2023-05-10T05:06:55;99914.91;;;12.69;100.00
18813;BME280;9534;51.140;6.296;2023-05-10T05:10:58;99915.75;;;12.70;100.00
18813;BME280;9534;51.140;6.296;2023-05-10T05:15:01;99909.91;;;12.66;100.00
18813;BME280;9534;51.140;6.296;2023-05-10T05:19:06;99922.22;;;12.64;100.00
18813;BME280;9534;51.140;6.296;2023-05-10T05:23:11;99923.28;;;12.63;100.00
18813;BME280;9534;51.140;6.296;2023-05-10T05:27:14;99928.19;;;12.61;100.00
18813;BME280;9534;51.140;6.296;2023-05-10T05:31:17;99922.91;;;12.59;100.00
18813;BME280;9534;51.140;6.296;2023-05-10T05:35:20;99932.00;;;12.60;100.00
18813;BME280;9534;51.140;6.296;2023-05-10T05:39:25;99938.69;;;12.64;100.00
18813;BME280;9534;51.140;6.296;2023-05-10T05:43:28;99940.59;;;12.63;100.00
18813;BME280;9534;51.140;6.296;2023-05-10T05:47:31;99937.94;;;12.68;100.00
18813;BME280;9534;51.140;6.296;2023-05-10T05:51:34;99950.50;;;12.76;100.00
18813;BME280;9534;51.140;6.296;2023-05-10T05:55:38;99969.72;;;12.76;100.00
18813;BME280;9534;51.140;6.296;2023-05-10T05:59:41;99954.69;;;12.67;100.00
18813;BME280;9534;51.140;6.296;2023-05-10T06:03:45;99956.34;;;12.68;100.00
18813;BME280;9534;51.140;6.296;2023-05-10T06:07:50;99957.41;;;12.67;100.00
18813;BME280;9534;51.140;6.296;2023-05-10T06:11:56;99973.91;;;12.67;100.00
18813;BME280;9534;51.140;6.296;2023-05-10T06:15:59;99966.47;;;12.67;100.00
18813;BME280;9534;51.140;6.296;2023-05-10T06:20:03;99982.25;;;12.72;100.00
18813;BME280;9534;51.140;6.296;2023-05-10T06:24:06;99968.63;;;12.77;100.00
18813;BME280;9534;51.140;6.296;2023-05-10T06:28:10;99983.41;;;12.87;100.00
18813;BME280;9534;51.140;6.296;2023-05-10T06:32:13;99979.97;;;12.80;100.00
18813;BME280;9534;51.140;6.296;2023-05-10T06:36:16;99976.28;;;12.75;100.00
18813;BME280;9534;51.140;6.296;2023-05-10T06:40:19;99990.47;;;12.72;100.00
18813;BME280;9534;51.140;6.296;2023-05-10T06:44:23;99987.13;;;12.70;100.00
18813;BME280;9534;51.140;6.296;2023-05-10T06:48:26;99988.34;;;12.74;100.00
18813;BME280;9534;51.140;6.296;2023-05-10T06:52:29;99999.06;;;12.75;100.00
18813;BME280;9534;51.140;6.296;2023-05-10T06:56:32;99996.69;;;12.79;100.00
18813;BME280;9534;51.140;6.296;2023-05-10T07:00:36;99997.75;;;12.78;100.00
18813;BME280;9534;51.140;6.296;2023-05-10T07:04:42;99995.81;;;12.90;100.00
18813;BME280;9534;51.140;6.296;2023-05-10T07:08:45;99997.13;;;12.99;100.00
18813;BME280;9534;51.140;6.296;2023-05-10T07:12:48;100002.59;;;13.22;100.00
18813;BME280;9534;51.140;6.296;2023-05-10T07:16:52;99998.94;;;13.56;100.00
18813;BME280;9534;51.140;6.296;2023-05-10T07:20:56;100003.19;;;13.91;100.00
18813;BME280;9534;51.140;6.296;2023-05-10T07:24:59;99991.09;;;14.36;100.00
18813;BME280;9534;51.140;6.296;2023-05-10T07:29:02;100003.09;;;14.63;100.00
18813;BME280;9534;51.140;6.296;2023-05-10T07:33:09;99991.00;;;14.48;100.00
18813;BME280;9534;51.140;6.296;2023-05-10T07:37:13;99980.53;;;14.66;100.00
18813;BME280;9534;51.140;6.296;2023-05-10T07:41:15;99965.34;;;14.80;100.00
18813;BME280;9534;51.140;6.296;2023-05-10T07:45:18;99944.50;;;14.68;100.00
18813;BME280;9534;51.140;6.296;2023-05-10T07:49:22;99936.53;;;15.09;100.00
18813;BME280;9534;51.140;6.296;2023-05-10T07:53:26;99926.03;;;15.06;100.00
18813;BME280;9534;51.140;6.296;2023-05-10T07:57:29;99913.66;;;15.08;100.00
18813;BME280;9534;51.140;6.296;2023-05-10T08:01:33;99919.28;;;14.76;100.00
18813;BME280;9534;51.140;6.296;2023-05-10T08:05:37;99923.16;;;14.58;100.00
18813;BME280;9534;51.140;6.296;2023-05-10T08:09:40;99945.13;;;14.37;100.00
18813;BME280;9534;51.140;6.296;2023-05-10T08:13:43;99961.22;;;14.12;100.00
18813;BME280;9534;51.140;6.296;2023-05-10T08:17:46;99970.38;;;14.17;100.00
18813;BME280;9534;51.140;6.296;2023-05-10T08:21:51;99972.13;;;14.23;100.00
18813;BME280;9534;51.140;6.296;2023-05-10T08:25:54;100000.63;;;14.45;100.00
18813;BME280;9534;51.140;6.296;2023-05-10T08:29:57;99998.44;;;14.64;100.00
18813;BME280;9534;51.140;6.296;2023-05-10T08:34:00;99999.75;;;14.61;100.00
18813;BME280;9534;51.140;6.296;2023-05-10T08:38:05;99998.41;;;14.80;100.00
18813;BME280;9534;51.140;6.296;2023-05-10T08:42:07;99998.84;;;15.10;100.00
18813;BME280;9534;51.140;6.296;2023-05-10T08:46:11;99999.16;;;14.76;100.00
18813;BME280;9534;51.140;6.296;2023-05-10T08:50:18;100025.72;;;14.49;100.00
18813;BME280;9534;51.140;6.296;2023-05-10T08:54:24;100026.13;;;14.57;100.00
18813;BME280;9534;51.140;6.296;2023-05-10T08:58:27;100038.06;;;14.46;100.00
18813;BME280;9534;51.140;6.296;2023-05-10T09:02:31;100039.97;;;14.29;100.00
18813;BME280;9534;51.140;6.296;2023-05-10T09:06:34;100060.50;;;14.38;100.00
18813;BME280;9534;51.140;6.296;2023-05-10T09:10:38;100076.34;;;14.31;100.00
18813;BME280;9534;51.140;6.296;2023-05-10T09:14:43;100084.84;;;14.30;100.00
18813;BME280;9534;51.140;6.296;2023-05-10T09:18:47;100092.63;;;14.49;100.00
18813;BME280;9534;51.140;6.296;2023-05-10T09:22:51;100088.38;;;14.58;100.00
18813;BME280;9534;51.140;6.296;2023-05-10T09:26:55;100090.81;;;14.87;100.00
18813;BME280;9534;51.140;6.296;2023-05-10T09:30:59;100087.72;;;14.68;100.00
18813;BME280;9534;51.140;6.296;2023-05-10T09:35:06;100097.09;;;14.39;100.00
18813;BME280;9534;51.140;6.296;2023-05-10T09:39:09;100100.34;;;14.36;100.00
18813;BME280;9534;51.140;6.296;2023-05-10T09:43:13;100103.75;;;14.54;100.00
18813;BME280;9534;51.140;6.296;2023-05-10T09:47:17;100096.38;;;14.43;100.00
18813;BME280;9534;51.140;6.296;2023-05-10T09:51:20;100095.72;;;14.69;100.00
18813;BME280;9534;51.140;6.296;2023-05-10T09:55:23;100111.56;;;14.62;100.00
18813;BME280;9534;51.140;6.296;2023-05-10T09:59:28;100118.84;;;14.68;100.00
18813;BME280;9534;51.140;6.296;2023-05-10T10:03:32;100119.94;;;14.83;100.00
18813;BME280;9534;51.140;6.296;2023-05-10T10:07:35;100106.56;;;15.08;100.00
18813;BME280;9534;51.140;6.296;2023-05-10T10:11:38;100113.53;;;15.49;100.00
18813;BME280;9534;51.140;6.296;2023-05-10T10:15:44;100112.72;;;15.70;100.00
18813;BME280;9534;51.140;6.296;2023-05-10T10:19:48;100111.56;;;15.44;100.00
18813;BME280;9534;51.140;6.296;2023-05-10T10:23:51;100120.94;;;15.27;100.00
18813;BME280;9534;51.140;6.296;2023-05-10T10:27:59;100124.94;;;15.36;100.00
18813;BME280;9534;51.140;6.296;2023-05-10T10:32:09;100125.16;;;15.34;100.00
18813;BME280;9534;51.140;6.296;2023-05-10T10:36:14;100130.75;;;15.56;100.00
18813;BME280;9534;51.140;6.296;2023-05-10T10:40:24;100125.44;;;15.33;100.00
18813;BME280;9534;51.140;6.296;2023-05-10T10:44:35;100141.81;;;15.39;100.00
18813;BME280;9534;51.140;6.296;2023-05-10T10:48:39;100136.81;;;15.20;100.00
18813;BME280;9534;51.140;6.296;2023-05-10T10:52:43;100139.63;;;15.41;100.00
18813;BME280;9534;51.140;6.296;2023-05-10T10:56:46;100152.66;;;15.46;100.00
18813;BME280;9534;51.140;6.296;2023-05-10T11:01:12;100145.16;;;15.25;100.00
18813;BME280;9534;51.140;6.296;2023-05-10T11:05:24;100147.81;;;15.36;100.00
18813;BME280;9534;51.140;6.296;2023-05-10T11:09:27;100142.19;;;15.64;100.00
18813;BME280;9534;51.140;6.296;2023-05-10T11:13:31;100138.59;;;16.07;100.00
18813;BME280;9534;51.140;6.296;2023-05-10T11:17:34;100146.31;;;16.05;100.00
18813;BME280;9534;51.140;6.296;2023-05-10T11:21:45;100153.31;;;15.53;100.00
18813;BME280;9534;51.140;6.296;2023-05-10T11:25:49;100164.13;;;15.38;100.00
18813;BME280;9534;51.140;6.296;2023-05-10T11:29:52;100173.69;;;15.02;100.00
18813;BME280;9534;51.140;6.296;2023-05-10T11:33:55;100180.47;;;14.95;100.00
18813;BME280;9534;51.140;6.296;2023-05-10T11:38:00;100191.59;;;15.00;100.00
18813;BME280;9534;51.140;6.296;2023-05-10T11:42:03;100194.97;;;14.74;100.00
18813;BME280;9534;51.140;6.296;2023-05-10T11:46:06;100197.28;;;15.10;100.00
18813;BME280;9534;51.140;6.296;2023-05-10T11:50:10;100195.69;;;15.30;100.00
18813;BME280;9534;51.140;6.296;2023-05-10T11:54:15;100184.31;;;15.98;100.00
18813;BME280;9534;51.140;6.296;2023-05-10T11:58:18;100155.47;;;16.53;100.00
18813;BME280;9534;51.140;6.296;2023-05-10T12:02:23;100143.44;;;16.69;100.00
18813;BME280;9534;51.140;6.296;2023-05-10T12:06:26;100152.06;;;16.72;100.00
18813;BME280;9534;51.140;6.296;2023-05-10T12:10:34;100144.97;;;16.33;100.00
18813;BME280;9534;51.140;6.296;2023-05-10T12:14:37;100143.94;;;16.39;100.00
18813;BME280;9534;51.140;6.296;2023-05-10T12:18:40;100153.03;;;16.88;100.00
18813;BME280;9534;51.140;6.296;2023-05-10T12:22:44;100154.13;;;16.12;100.00
18813;BME280;9534;51.140;6.296;2023-05-10T12:26:49;100160.22;;;16.36;100.00
18813;BME280;9534;51.140;6.296;2023-05-10T12:30:52;100171.47;;;15.87;100.00
18813;BME280;9534;51.140;6.296;2023-05-10T12:34:55;100167.69;;;15.93;100.00
18813;BME280;9534;51.140;6.296;2023-05-10T12:39:02;100172.16;;;16.20;100.00
18813;BME280;9534;51.140;6.296;2023-05-10T12:43:06;100166.56;;;16.36;100.00
18813;BME280;9534;51.140;6.296;2023-05-10T12:47:09;100159.38;;;16.57;100.00
18813;BME280;9534;51.140;6.296;2023-05-10T12:51:12;100166.03;;;16.39;100.00
18813;BME280;9534;51.140;6.296;2023-05-10T12:55:18;100160.00;;;16.64;100.00
18813;BME280;9534;51.140;6.296;2023-05-10T12:59:23;100162.94;;;16.84;100.00
18813;BME280;9534;51.140;6.296;2023-05-10T13:03:26;100174.28;;;16.82;100.00
18813;BME280;9534;51.140;6.296;2023-05-10T13:07:29;100177.00;;;17.09;100.00
18813;BME280;9534;51.140;6.296;2023-05-10T13:11:32;100177.84;;;17.09;100.00
18813;BME280;9534;51.140;6.296;2023-05-10T13:15:36;100183.06;;;17.06;100.00
18813;BME280;9534;51.140;6.296;2023-05-10T13:19:39;100192.78;;;17.13;100.00
18813;BME280;9534;51.140;6.296;2023-05-10T13:23:43;100176.19;;;17.08;100.00
18813;BME280;9534;51.140;6.296;2023-05-10T13:27:46;100192.22;;;17.11;100.00
18813;BME280;9534;51.140;6.296;2023-05-10T13:31:50;100186.00;;;16.94;100.00
18813;BME280;9534;51.140;6.296;2023-05-10T13:35:53;100194.56;;;16.66;100.00
18813;BME280;9534;51.140;6.296;2023-05-10T13:39:56;100189.44;;;16.80;100.00
18813;BME280;9534;51.140;6.296;2023-05-10T13:43:59;100183.00;;;17.32;100.00
18813;BME280;9534;51.140;6.296;2023-05-10T13:48:04;100176.81;;;16.89;100.00
18813;BME280;9534;51.140;6.296;2023-05-10T13:52:07;100169.78;;;17.08;100.00
18813;BME280;9534;51.140;6.296;2023-05-10T13:56:11;100173.22;;;17.51;100.00
18813;BME280;9534;51.140;6.296;2023-05-10T14:00:15;100181.47;;;17.46;100.00
18813;BME280;9534;51.140;6.296;2023-05-10T14:04:19;100173.47;;;17.96;100.00
18813;BME280;9534;51.140;6.296;2023-05-10T14:08:22;100173.97;;;17.83;100.00
18813;BME280;9534;51.140;6.296;2023-05-10T14:12:25;100172.16;;;18.08;100.00
18813;BME280;9534;51.140;6.296;2023-05-10T14:16:28;100162.41;;;18.01;100.00
18813;BME280;9534;51.140;6.296;2023-05-10T14:20:33;100162.69;;;18.65;100.00
18813;BME280;9534;51.140;6.296;2023-05-10T14:24:36;100179.69;;;18.18;100.00
18813;BME280;9534;51.140;6.296;2023-05-10T14:28:39;100167.97;;;18.01;100.00
18813;BME280;9534;51.140;6.296;2023-05-10T14:32:42;100156.31;;;17.99;100.00
18813;BME280;9534;51.140;6.296;2023-05-10T14:36:47;100174.22;;;17.81;100.00
18813;BME280;9534;51.140;6.296;2023-05-10T14:40:50;100164.22;;;17.75;100.00
18813;BME280;9534;51.140;6.296;2023-05-10T14:44:53;100170.66;;;17.81;100.00
18813;BME280;9534;51.140;6.296;2023-05-10T14:48:56;100170.63;;;17.76;100.00
18813;BME280;9534;51.140;6.296;2023-05-10T14:53:00;100167.31;;;17.79;100.00
18813;BME280;9534;51.140;6.296;2023-05-10T14:57:03;100162.69;;;17.48;100.00
18813;BME280;9534;51.140;6.296;2023-05-10T15:01:06;100164.09;;;17.50;100.00
18813;BME280;9534;51.140;6.296;2023-05-10T15:05:09;100170.44;;;17.51;100.00
18813;BME280;9534;51.140;6.296;2023-05-10T15:09:14;100173.00;;;17.62;100.00
18813;BME280;9534;51.140;6.296;2023-05-10T15:13:17;100172.84;;;17.79;100.00
18813;BME280;9534;51.140;6.296;2023-05-10T15:17:20;100189.50;;;17.84;100.00
18813;BME280;9534;51.140;6.296;2023-05-10T15:21:23;100172.03;;;17.42;100.00
18813;BME280;9534;51.140;6.296;2023-05-10T15:25:28;100181.78;;;17.18;100.00
18813;BME280;9534;51.140;6.296;2023-05-10T15:29:31;100181.50;;;17.51;100.00
18813;BME280;9534;51.140;6.296;2023-05-10T15:33:36;100189.38;;;17.69;100.00
18813;BME280;9534;51.140;6.296;2023-05-10T15:37:39;100197.00;;;17.21;100.00
18813;BME280;9534;51.140;6.296;2023-05-10T15:41:44;100201.06;;;17.13;100.00
18813;BME280;9534;51.140;6.296;2023-05-10T15:45:47;100213.16;;;17.02;100.00
18813;BME280;9534;51.140;6.296;2023-05-10T15:49:50;100222.69;;;16.63;100.00
18813;BME280;9534;51.140;6.296;2023-05-10T15:53:53;100223.22;;;16.60;100.00
18813;BME280;9534;51.140;6.296;2023-05-10T15:58:09;100227.97;;;16.65;100.00
18813;BME280;9534;51.140;6.296;2023-05-10T16:02:12;100223.50;;;16.59;100.00
18813;BME280;9534;51.140;6.296;2023-05-10T16:06:15;100225.41;;;16.58;100.00
18813;BME280;9534;51.140;6.296;2023-05-10T16:10:19;100223.56;;;16.64;100.00
18813;BME280;9534;51.140;6.296;2023-05-10T16:14:23;100233.00;;;16.46;100.00
18813;BME280;9534;51.140;6.296;2023-05-10T16:18:27;100236.56;;;16.25;100.00
18813;BME280;9534;51.140;6.296;2023-05-10T16:22:30;100247.72;;;16.35;100.00
18813;BME280;9534;51.140;6.296;2023-05-10T16:26:33;100258.97;;;16.29;100.00
18813;BME280;9534;51.140;6.296;2023-05-10T16:30:42;100246.13;;;16.18;100.00
18813;BME280;9534;51.140;6.296;2023-05-10T16:34:45;100256.22;;;16.08;100.00
18813;BME280;9534;51.140;6.296;2023-05-10T16:38:48;100263.41;;;15.54;100.00
18813;BME280;9534;51.140;6.296;2023-05-10T16:42:51;100274.44;;;15.54;100.00
18813;BME280;9534;51.140;6.296;2023-05-10T16:46:57;100282.13;;;15.08;100.00
18813;BME280;9534;51.140;6.296;2023-05-10T16:51:01;100295.91;;;15.08;100.00
18813;BME280;9534;51.140;6.296;2023-05-10T16:55:05;100305.56;;;14.94;100.00
18813;BME280;9534;51.140;6.296;2023-05-10T16:59:08;100305.13;;;14.85;100.00
18813;BME280;9534;51.140;6.296;2023-05-10T17:03:12;100303.88;;;14.65;100.00
18813;BME280;9534;51.140;6.296;2023-05-10T17:07:15;100312.03;;;14.60;100.00
18813;BME280;9534;51.140;6.296;2023-05-10T17:11:19;100319.63;;;14.53;100.00
18813;BME280;9534;51.140;6.296;2023-05-10T17:15:22;100308.00;;;14.51;100.00
18813;BME280;9534;51.140;6.296;2023-05-10T17:19:27;100323.81;;;14.44;100.00
18813;BME280;9534;51.140;6.296;2023-05-10T17:23:30;100317.63;;;14.65;100.00
18813;BME280;9534;51.140;6.296;2023-05-10T17:27:33;100317.41;;;14.55;100.00
18813;BME280;9534;51.140;6.296;2023-05-10T17:31:36;100313.06;;;14.31;100.00
18813;BME280;9534;51.140;6.296;2023-05-10T17:35:43;100316.53;;;14.27;100.00
18813;BME280;9534;51.140;6.296;2023-05-10T17:39:46;100311.41;;;14.30;100.00
18813;BME280;9534;51.140;6.296;2023-05-10T17:43:49;100311.41;;;14.30;100.00
18813;BME280;9534;51.140;6.296;2023-05-10T17:47:52;100309.59;;;14.24;100.00
18813;BME280;9534;51.140;6.296;2023-05-10T17:51:57;100316.38;;;14.22;100.00
18813;BME280;9534;51.140;6.296;2023-05-10T17:56:01;100310.66;;;14.23;100.00
18813;BME280;9534;51.140;6.296;2023-05-10T18:00:05;100313.41;;;14.23;100.00
18813;BME280;9534;51.140;6.296;2023-05-10T18:04:09;100317.97;;;14.06;100.00
18813;BME280;9534;51.140;6.296;2023-05-10T18:08:14;100320.22;;;14.09;100.00
18813;BME280;9534;51.140;6.296;2023-05-10T18:12:23;100317.88;;;14.24;100.00
18813;BME280;9534;51.140;6.296;2023-05-10T18:16:26;100313.63;;;14.45;100.00
18813;BME280;9534;51.140;6.296;2023-05-10T18:20:29;100315.56;;;14.33;100.00
18813;BME280;9534;51.140;6.296;2023-05-10T18:24:34;100316.97;;;14.47;100.00
18813;BME280;9534;51.140;6.296;2023-05-10T18:28:40;100312.59;;;14.34;100.00
18813;BME280;9534;51.140;6.296;2023-05-10T18:32:43;100321.28;;;14.43;100.00
18813;BME280;9534;51.140;6.296;2023-05-10T18:36:47;100321.06;;;14.44;100.00
18813;BME280;9534;51.140;6.296;2023-05-10T18:40:52;100313.06;;;14.31;100.00
18813;BME280;9534;51.140;6.296;2023-05-10T18:44:54;100326.47;;;14.16;100.00
18813;BME280;9534;51.140;6.296;2023-05-10T18:48:57;100331.03;;;14.11;100.00
18813;BME280;9534;51.140;6.296;2023-05-10T18:53:00;100331.97;;;14.05;100.00
18813;BME280;9534;51.140;6.296;2023-05-10T18:57:05;100341.19;;;13.99;100.00
18813;BME280;9534;51.140;6.296;2023-05-10T19:01:08;100340.69;;;13.90;100.00
18813;BME280;9534;51.140;6.296;2023-05-10T19:05:12;100342.72;;;13.83;100.00
18813;BME280;9534;51.140;6.296;2023-05-10T19:09:15;100346.53;;;13.82;100.00
18813;BME280;9534;51.140;6.296;2023-05-10T19:13:22;100350.38;;;13.81;100.00
18813;BME280;9534;51.140;6.296;2023-05-10T19:17:25;100355.28;;;13.79;100.00
18813;BME280;9534;51.140;6.296;2023-05-10T19:21:28;100356.22;;;13.73;100.00
18813;BME280;9534;51.140;6.296;2023-05-10T19:25:33;100361.03;;;13.66;100.00
18813;BME280;9534;51.140;6.296;2023-05-10T19:29:37;100368.53;;;13.59;100.00
18813;BME280;9534;51.140;6.296;2023-05-10T19:33:40;100372.91;;;13.49;100.00
18813;BME280;9534;51.140;6.296;2023-05-10T19:37:44;100379.28;;;13.50;100.00
18813;BME280;9534;51.140;6.296;2023-05-10T19:41:47;100390.19;;;13.27;100.00
18813;BME280;9534;51.140;6.296;2023-05-10T19:45:52;100393.97;;;13.14;100.00
18813;BME280;9534;51.140;6.296;2023-05-10T19:49:56;100398.59;;;13.14;100.00
18813;BME280;9534;51.140;6.296;2023-05-10T19:53:59;100401.94;;;13.04;100.00
18813;BME280;9534;51.140;6.296;2023-05-10T19:58:02;100402.41;;;12.95;100.00
18813;BME280;9534;51.140;6.296;2023-05-10T20:02:07;100407.56;;;12.91;100.00
18813;BME280;9534;51.140;6.296;2023-05-10T20:06:10;100401.41;;;12.78;100.00
18813;BME280;9534;51.140;6.296;2023-05-10T20:10:14;100393.06;;;12.66;100.00
18813;BME280;9534;51.140;6.296;2023-05-10T20:14:17;100389.88;;;12.51;100.00
18813;BME280;9534;51.140;6.296;2023-05-10T20:18:22;100389.63;;;12.35;100.00
18813;BME280;9534;51.140;6.296;2023-05-10T20:22:25;100391.09;;;12.20;100.00
18813;BME280;9534;51.140;6.296;2023-05-10T20:26:28;100390.53;;;12.11;100.00
18813;BME280;9534;51.140;6.296;2023-05-10T20:30:31;100396.84;;;12.12;100.00
18813;BME280;9534;51.140;6.296;2023-05-10T20:34:36;100397.06;;;11.92;100.00
18813;BME280;9534;51.140;6.296;2023-05-10T20:38:39;100399.97;;;12.15;100.00
18813;BME280;9534;51.140;6.296;2023-05-10T20:42:42;100405.47;;;12.15;100.00
18813;BME280;9534;51.140;6.296;2023-05-10T20:46:45;100404.22;;;12.11;100.00
18813;BME280;9534;51.140;6.296;2023-05-10T20:50:49;100404.38;;;11.98;100.00
18813;BME280;9534;51.140;6.296;2023-05-10T20:54:52;100412.94;;;11.84;100.00
18813;BME280;9534;51.140;6.296;2023-05-10T20:58:55;100414.69;;;11.78;100.00
18813;BME280;9534;51.140;6.296;2023-05-10T21:02:58;100411.31;;;11.76;100.00
18813;BME280;9534;51.140;6.296;2023-05-10T21:07:03;100412.94;;;11.84;100.00
18813;BME280;9534;51.140;6.296;2023-05-10T21:11:06;100408.31;;;11.84;100.00
18813;BME280;9534;51.140;6.296;2023-05-10T21:15:09;100407.06;;;11.80;100.00
18813;BME280;9534;51.140;6.296;2023-05-10T21:19:12;100409.56;;;11.82;100.00
18813;BME280;9534;51.140;6.296;2023-05-10T21:23:16;100409.97;;;11.85;100.00